Time;durP1;ratioP1;P1;durP2;ratioP2;P2;SDS_P1;SDS_P2;PMS_P1;PMS_P2;Temp;Humidity;BMP_temperature;BMP_pressure;BME280_temperature;BME280_humidity;BME280_pressure;Samples;Min_cycle;Max_cycle;Signal;HPM_P1;HPM_P2
2022/12/23 06:16:40;;;;;;;;;;;;;;;12.23;83.80;96685.69;4252871;27;10264;-72
2022/12/23 06:18:43;;;;;;;;;;;;;;;12.51;83.32;96672.19;4238765;27;5672;-74
2022/12/23 06:20:46;;;;;;;;;;;;;;;12.74;82.45;96677.00;4239741;27;5658;-73
2022/12/23 06:22:49;;;;;;;;;;;;;;;12.91;82.06;96681.81;4242361;27;5650;-74
2022/12/23 06:25:17;;;;;;;;;;;;;;;13.05;81.32;96683.41;4232833;27;5818;-73
2022/12/23 06:27:19;;;;;;;;;;;;;;;13.10;81.09;96676.44;4237766;27;5784;-73
2022/12/23 06:29:22;;;;;;;;;;;;;;;13.15;80.74;96673.16;4236083;27;5627;-72
2022/12/23 06:31:25;;;;;;;;;;;;;;;13.21;80.87;96672.34;4236659;27;5762;-72
2022/12/23 06:33:29;;;;;;;;;;;;;;;13.26;80.69;96664.56;4241260;27;5832;-72
2022/12/23 06:35:31;;;;;;;;;;;;;;;13.29;80.64;96658.00;4240997;27;5646;-73
2022/12/23 06:37:35;;;;;;;;;;;;;;;13.34;80.25;96666.13;4238081;27;5905;-73
2022/12/23 06:39:37;;;;;;;;;;;;;;;13.39;80.29;96664.47;4237654;27;5650;-72
2022/12/23 06:41:40;;;;;;;;;;;;;;;13.45;80.09;96672.59;4240384;27;5740;-68
2022/12/23 06:43:43;;;;;;;;;;;;;;;13.49;79.96;96682.59;4242082;27;6335;-68
2022/12/23 06:45:47;;;;;;;;;;;;;;;13.56;79.72;96698.47;4248816;27;5658;-69
2022/12/23 06:47:50;;;;;;;;;;;;;;;13.58;79.60;96709.69;4248958;27;5733;-68
2022/12/23 06:49:54;;;;;;;;;;;;;;;13.59;79.25;96706.00;4248840;27;5087;-69
2022/12/23 06:51:57;;;;;;;;;;;;;;;13.52;78.99;96710.56;4248553;27;5841;-69
2022/12/23 06:54:00;;;;;;;;;;;;;;;13.44;78.80;96710.81;4248845;27;5638;-69
2022/12/23 06:56:04;;;;;;;;;;;;;;;13.34;78.93;96703.31;4248449;27;5646;-69
2022/12/23 06:58:07;;;;;;;;;;;;;;;13.31;79.27;96706.38;4248821;27;5657;-70
2022/12/23 07:00:11;;;;;;;;;;;;;;;13.33;79.10;96715.75;4235428;27;5727;-69
2022/12/23 07:02:14;;;;;;;;;;;;;;;13.37;79.10;96724.97;4242325;27;5686;-68
2022/12/23 07:04:18;;;;;;;;;;;;;;;13.40;78.91;96721.06;4248064;27;5653;-68
2022/12/23 07:06:22;;;;;;;;;;;;;;;13.41;78.71;96720.03;4247993;27;5677;-68
2022/12/23 07:08:25;;;;;;;;;;;;;;;13.40;78.51;96703.28;4239900;27;5745;-70
2022/12/23 07:10:27;;;;;;;;;;;;;;;13.41;78.50;96704.09;4232154;27;5752;-69
2022/12/23 07:12:30;;;;;;;;;;;;;;;13.44;78.41;96692.22;4230736;28;5667;-70
2022/12/23 07:14:33;;;;;;;;;;;;;;;13.45;77.99;96684.03;4243760;27;5736;-70
2022/12/23 07:16:36;;;;;;;;;;;;;;;13.47;78.13;96686.47;4241010;27;5650;-69
2022/12/23 07:18:39;;;;;;;;;;;;;;;13.47;78.19;96705.06;4229749;28;5634;-70
2022/12/23 07:20:41;;;;;;;;;;;;;;;13.48;77.66;96707.53;4222380;28;5762;-69
2022/12/23 07:22:45;;;;;;;;;;;;;;;13.47;77.60;96707.72;4233464;28;5762;-70
2022/12/23 07:24:49;;;;;;;;;;;;;;;13.46;77.55;96711.41;4236711;28;5127;-69
2022/12/23 07:26:54;;;;;;;;;;;;;;;13.48;77.80;96720.81;4234501;28;7719;-69
2022/12/23 07:28:57;;;;;;;;;;;;;;;13.50;77.80;96718.75;4228320;28;5830;-69
2022/12/23 07:31:00;;;;;;;;;;;;;;;13.54;77.64;96729.75;4228049;28;5663;-70
2022/12/23 07:33:02;;;;;;;;;;;;;;;13.55;77.25;96726.88;4228236;28;5671;-69
2022/12/23 07:35:06;;;;;;;;;;;;;;;13.58;77.38;96737.06;4223231;28;5701;-69
2022/12/23 07:37:09;;;;;;;;;;;;;;;13.59;77.12;96737.88;4236003;28;5837;-69
2022/12/23 07:39:13;;;;;;;;;;;;;;;13.57;77.22;96743.41;4223044;28;5696;-70
2022/12/23 07:41:16;;;;;;;;;;;;;;;13.61;77.00;96739.31;4227985;28;5671;-68
2022/12/23 07:43:19;;;;;;;;;;;;;;;13.61;76.77;96743.81;4233802;28;5667;-69
2022/12/23 07:45:22;;;;;;;;;;;;;;;13.61;76.83;96730.53;4221633;27;5796;-68
2022/12/23 07:47:24;;;;;;;;;;;;;;;13.62;76.59;96726.84;4227778;28;5699;-69
2022/12/23 07:49:27;;;;;;;;;;;;;;;13.63;76.67;96723.16;4226276;28;5899;-69
2022/12/23 07:51:30;;;;;;;;;;;;;;;13.64;76.42;96714.16;4228435;27;5685;-69
2022/12/23 07:53:33;;;;;;;;;;;;;;;13.64;76.44;96714.97;4227885;28;5683;-69
2022/12/23 07:55:37;;;;;;;;;;;;;;;13.65;76.38;96723.78;4235708;28;5800;-68
2022/12/23 07:57:40;;;;;;;;;;;;;;;13.65;76.19;96727.22;4228078;28;5654;-69
2022/12/23 07:59:42;;;;;;;;;;;;;;;13.64;76.37;96730.09;4235630;27;5658;-69
2022/12/23 08:01:45;;;;;;;;;;;;;;;13.63;76.44;96733.78;4221021;28;5679;-69
2022/12/23 08:03:48;;;;;;;;;;;;;;;13.65;76.47;96729.06;4228681;28;5641;-69
2022/12/23 08:05:59;;;;;;;;;;;;;;;13.68;76.23;96731.31;4229155;28;5639;-67
2022/12/23 08:08:01;;;;;;;;;;;;;;;13.69;75.96;96719.66;4219739;28;6368;-68
2022/12/23 08:10:05;;;;;;;;;;;;;;;13.72;75.91;96718.44;4219179;28;5683;-69
2022/12/23 08:12:09;;;;;;;;;;;;;;;13.74;76.04;96727.00;4219374;28;5671;-68
2022/12/23 08:14:12;;;;;;;;;;;;;;;13.76;75.88;96717.78;4227174;28;5659;-69
2022/12/23 08:16:15;;;;;;;;;;;;;;;13.78;76.03;96718.38;4226976;27;5675;-68
2022/12/23 08:18:18;;;;;;;;;;;;;;;13.81;75.66;96717.13;4227338;28;5798;-69
2022/12/23 08:20:20;;;;;;;;;;;;;;;13.82;75.82;96714.25;4219092;28;5814;-69
2022/12/23 08:22:23;;;;;;;;;;;;;;;13.83;75.54;96712.41;4218716;27;5691;-68
2022/12/23 08:24:26;;;;;;;;;;;;;;;13.85;75.39;96711.16;4234211;28;5729;-69
2022/12/23 08:26:28;;;;;;;;;;;;;;;13.87;75.48;96714.41;4233240;27;5108;-68
2022/12/23 08:28:34;;;;;;;;;;;;;;;13.88;75.51;96721.34;4225386;28;5714;-68
2022/12/23 08:30:36;;;;;;;;;;;;;;;13.88;75.45;96724.03;4227595;28;5735;-68
2022/12/23 08:32:39;;;;;;;;;;;;;;;13.90;75.33;96721.94;4219118;28;5707;-68
2022/12/23 08:34:42;;;;;;;;;;;;;;;13.92;75.39;96719.06;4231410;27;5653;-69
2022/12/23 08:36:44;;;;;;;;;;;;;;;13.93;75.26;96721.53;4228633;27;5819;-69
2022/12/23 08:38:47;;;;;;;;;;;;;;;13.95;75.21;96719.47;4221496;28;5816;-69
2022/12/23 08:40:50;;;;;;;;;;;;;;;13.97;75.25;96732.53;4234884;28;5825;-70
2022/12/23 08:42:54;;;;;;;;;;;;;;;13.97;75.17;96729.88;4235582;27;5736;-68
2022/12/23 08:44:59;;;;;;;;;;;;;;;13.98;74.81;96729.66;4235546;28;5745;-69
2022/12/23 08:47:02;;;;;;;;;;;;;;;13.99;75.10;96741.94;4226901;27;5658;-69
2022/12/23 08:49:06;;;;;;;;;;;;;;;14.01;74.95;96736.38;4235574;28;5737;-69
2022/12/23 08:51:12;;;;;;;;;;;;;;;14.04;75.01;96751.09;4230785;28;5667;-68
2022/12/23 08:53:15;;;;;;;;;;;;;;;14.04;74.91;96749.25;4218463;27;5746;-68
2022/12/23 08:55:17;;;;;;;;;;;;;;;14.06;74.76;96754.38;4218521;28;5740;-70
2022/12/23 08:57:20;;;;;;;;;;;;;;;14.07;74.82;96748.84;4224274;28;5830;-69
2022/12/23 08:59:23;;;;;;;;;;;;;;;14.10;74.70;96755.56;4228512;28;5742;-69
2022/12/23 09:01:29;;;;;;;;;;;;;;;14.10;74.71;96748.41;4225963;28;5709;-68
2022/12/23 09:03:33;;;;;;;;;;;;;;;14.12;74.70;96754.31;4229480;28;5665;-68
2022/12/23 09:05:40;;;;;;;;;;;;;;;14.11;74.65;96765.16;4221240;27;5777;-68
2022/12/23 09:07:43;;;;;;;;;;;;;;;14.13;74.57;96755.13;4227206;28;5647;-68
2022/12/23 09:09:46;;;;;;;;;;;;;;;14.16;74.23;96760.03;4223777;27;5852;-68
2022/12/23 09:11:49;;;;;;;;;;;;;;;14.16;74.32;96760.84;4230405;28;5853;-68
2022/12/23 09:13:52;;;;;;;;;;;;;;;14.16;74.38;96757.38;4218116;28;5779;-68
2022/12/23 09:15:55;;;;;;;;;;;;;;;14.16;74.30;96760.03;4228589;28;5836;-68
2022/12/23 09:17:59;;;;;;;;;;;;;;;14.16;74.37;96768.81;4235039;28;5654;-68
2022/12/23 09:20:01;;;;;;;;;;;;;;;14.17;74.34;96759.00;4234921;28;5682;-68
2022/12/23 09:22:04;;;;;;;;;;;;;;;14.18;74.36;96758.75;4234460;28;5709;-68
2022/12/23 09:24:07;;;;;;;;;;;;;;;14.19;74.30;96770.22;4235030;28;5654;-68
2022/12/23 09:26:11;;;;;;;;;;;;;;;14.21;74.36;96768.16;4234894;28;5048;-68
2022/12/23 09:28:13;;;;;;;;;;;;;;;14.23;74.24;96774.06;4234819;28;5659;-69
2022/12/23 09:30:16;;;;;;;;;;;;;;;14.23;74.28;96784.69;4234851;28;5650;-69
2022/12/23 09:32:19;;;;;;;;;;;;;;;14.23;74.24;96766.09;4234741;28;5642;-69
2022/12/23 09:34:25;;;;;;;;;;;;;;;14.23;74.05;96782.03;4219695;28;5393;-69
2022/12/23 09:36:28;;;;;;;;;;;;;;;14.24;73.99;96783.66;4217749;28;7697;-69
2022/12/23 09:38:31;;;;;;;;;;;;;;;14.25;73.91;96786.09;4217771;28;5663;-69
2022/12/23 09:40:37;;;;;;;;;;;;;;;14.25;73.96;96791.41;4217477;27;5667;-69
2022/12/23 09:42:49;;;;;;;;;;;;;;;14.25;74.09;96785.28;4217670;28;6353;-69
2022/12/23 09:45:15;;;;;;;;;;;;;;;14.27;73.94;96788.56;4225944;28;5905;-69
2022/12/23 09:47:20;;;;;;;;;;;;;;;14.25;74.06;96777.31;4217741;28;5695;-69
2022/12/23 09:49:24;;;;;;;;;;;;;;;14.26;73.87;96777.09;4224063;28;5658;-68
2022/12/23 09:51:29;;;;;;;;;;;;;;;14.27;74.07;96778.75;4227335;28;5675;-69
2022/12/23 09:53:46;;;;;;;;;;;;;;;14.26;74.05;96765.63;4216560;28;5786;-69
2022/12/23 09:55:54;;;;;;;;;;;;;;;14.26;74.12;96774.44;4225944;28;6334;-69
2022/12/23 09:58:00;;;;;;;;;;;;;;;14.26;74.05;96768.31;4217502;28;5766;-69
2022/12/23 10:00:11;;;;;;;;;;;;;;;14.26;73.98;96770.97;4217591;28;5675;-69
2022/12/23 10:02:22;;;;;;;;;;;;;;;14.24;73.74;96765.03;4231134;28;5643;-69
2022/12/23 10:04:37;;;;;;;;;;;;;;;14.24;73.89;96762.38;4234404;28;6462;-69
2022/12/23 10:06:42;;;;;;;;;;;;;;;14.24;74.04;96765.88;4226209;28;5654;-69
2022/12/23 10:08:47;;;;;;;;;;;;;;;14.25;73.92;96761.34;4224823;28;5691;-69
2022/12/23 10:10:54;;;;;;;;;;;;;;;14.26;74.02;96760.31;4219326;28;5679;-69
2022/12/23 10:12:59;;;;;;;;;;;;;;;14.29;73.87;96757.25;4223096;28;5754;-70
2022/12/23 10:15:16;;;;;;;;;;;;;;;14.31;73.82;96765.81;4220557;28;5780;-69
2022/12/23 10:17:27;;;;;;;;;;;;;;;14.33;74.00;96757.63;4228362;28;5801;-69
2022/12/23 10:19:40;;;;;;;;;;;;;;;14.34;73.94;96764.56;4225053;28;5654;-69
2022/12/23 10:21:47;;;;;;;;;;;;;;;14.32;73.88;96748.84;4225540;27;5671;-69
2022/12/23 10:23:53;;;;;;;;;;;;;;;14.37;73.79;96756.16;4225652;28;6079;-69
2022/12/23 10:25:56;;;;;;;;;;;;;;;14.36;73.87;96757.19;4234516;28;5659;-69
2022/12/23 10:27:58;;;;;;;;;;;;;;;14.38;73.65;96757.78;4231269;28;6372;-69
2022/12/23 10:30:07;;;;;;;;;;;;;;;14.40;73.81;96737.94;4217206;27;5802;-69
2022/12/23 10:32:46;;;;;;;;;;;;;;;14.43;73.63;96760.59;4224634;28;5658;-69
2022/12/23 10:34:54;;;;;;;;;;;;;;;14.43;73.79;96750.78;4234223;27;5748;-68
2022/12/23 10:37:03;;;;;;;;;;;;;;;14.44;73.66;96765.75;4234160;28;5741;-68
2022/12/23 10:39:16;;;;;;;;;;;;;;;14.45;73.60;96759.38;4221701;28;5663;-69
2022/12/23 10:41:32;;;;;;;;;;;;;;;14.45;73.70;96756.72;4231679;28;5702;-70
2022/12/23 10:43:46;;;;;;;;;;;;;;;14.45;73.73;96767.38;4225988;28;5846;-69
2022/12/23 10:46:00;;;;;;;;;;;;;;;14.44;73.49;96751.59;4227323;28;5709;-70
2022/12/23 10:48:20;;;;;;;;;;;;;;;14.45;73.52;96762.03;4225359;27;5662;-69
2022/12/23 10:50:50;;;;;;;;;;;;;;;14.47;73.44;96753.84;4219028;28;5655;-69
2022/12/23 10:52:57;;;;;;;;;;;;;;;14.47;73.63;96746.69;4219712;28;5671;-69
2022/12/23 10:55:00;;;;;;;;;;;;;;;14.49;73.67;96757.09;4237547;28;5733;-69
2022/12/23 10:57:05;;;;;;;;;;;;;;;14.50;73.51;96746.25;4228767;27;5638;-69
2022/12/23 10:59:14;;;;;;;;;;;;;;;14.51;73.37;96763.84;4232911;28;5657;-69
2022/12/23 11:01:18;;;;;;;;;;;;;;;14.51;73.45;96763.03;4220317;28;5667;-69
2022/12/23 11:03:31;;;;;;;;;;;;;;;14.52;73.36;96754.00;4220295;27;5703;-70
2022/12/23 11:05:34;;;;;;;;;;;;;;;14.53;73.39;96756.44;4227822;28;6414;-69
2022/12/23 11:07:38;;;;;;;;;;;;;;;14.55;73.36;96743.75;4219952;28;5797;-69
2022/12/23 11:09:51;;;;;;;;;;;;;;;14.55;73.50;96756.22;4228241;27;5642;-69
2022/12/23 11:11:59;;;;;;;;;;;;;;;14.55;73.46;96757.03;4220307;28;5667;-68
2022/12/23 11:14:02;;;;;;;;;;;;;;;14.56;73.49;96753.34;4223767;27;5643;-68
2022/12/23 11:16:16;;;;;;;;;;;;;;;14.57;73.26;96752.31;4228240;28;5634;-68
2022/12/23 11:18:21;;;;;;;;;;;;;;;14.57;73.39;96754.97;4236938;28;5662;-69
2022/12/23 11:20:23;;;;;;;;;;;;;;;14.57;73.55;96754.97;4236973;28;5654;-70
2022/12/23 11:22:26;;;;;;;;;;;;;;;14.59;73.26;96759.25;4228160;28;5650;-69
2022/12/23 11:24:32;;;;;;;;;;;;;;;14.59;73.36;96754.75;4221301;28;5676;-70
2022/12/23 11:26:43;;;;;;;;;;;;;;;14.59;73.25;96760.06;4229066;28;5720;-69
2022/12/23 11:28:50;;;;;;;;;;;;;;;14.59;73.36;96754.75;4228316;28;5747;-69
2022/12/23 11:30:54;;;;;;;;;;;;;;;14.60;73.45;96755.56;4236685;28;5646;-69
2022/12/23 11:32:58;;;;;;;;;;;;;;;14.61;73.35;96762.50;4225400;27;5667;-69
2022/12/23 11:35:01;;;;;;;;;;;;;;;14.59;73.44;96762.72;4219561;28;6367;-70
2022/12/23 11:37:04;;;;;;;;;;;;;;;14.60;73.29;96766.19;4223383;28;5650;-69
2022/12/23 11:39:19;;;;;;;;;;;;;;;14.59;73.37;96767.25;4223633;28;5746;-69
2022/12/23 11:41:27;;;;;;;;;;;;;;;14.60;73.48;96767.00;4219810;28;5778;-69
2022/12/23 11:43:32;;;;;;;;;;;;;;;14.61;73.19;96773.16;4235494;28;5709;-69
2022/12/23 11:45:37;;;;;;;;;;;;;;;14.61;73.36;96765.16;4228226;28;5671;-69
2022/12/23 11:47:42;;;;;;;;;;;;;;;14.61;73.19;96770.50;4219833;28;6290;-69
2022/12/23 11:49:48;;;;;;;;;;;;;;;14.59;73.36;96760.06;4236516;28;5769;-69
2022/12/23 11:52:01;;;;;;;;;;;;;;;14.59;73.19;96753.94;4236269;27;5677;-69
2022/12/23 11:54:04;;;;;;;;;;;;;;;14.60;73.27;96760.88;4227916;27;5675;-69
2022/12/23 11:56:11;;;;;;;;;;;;;;;14.58;73.53;96747.81;4236301;28;5654;-69
2022/12/23 11:58:21;;;;;;;;;;;;;;;14.60;73.50;96759.03;4230957;28;5656;-69
2022/12/23 12:00:27;;;;;;;;;;;;;;;14.62;73.39;96758.84;4219342;28;5810;-71
2022/12/23 12:02:35;;;;;;;;;;;;;;;14.61;73.31;96752.72;4219530;28;5667;-69
2022/12/23 12:04:40;;;;;;;;;;;;;;;14.60;73.54;96751.06;4227748;28;5643;-69
2022/12/23 12:06:45;;;;;;;;;;;;;;;14.62;73.51;96756.19;4236144;28;5662;-69
2022/12/23 12:08:58;;;;;;;;;;;;;;;14.63;73.41;96750.63;4227496;28;5788;-71
2022/12/23 12:11:06;;;;;;;;;;;;;;;14.62;73.51;96742.88;4236139;28;5890;-69
2022/12/23 12:13:23;;;;;;;;;;;;;;;14.62;73.68;96738.38;4236401;27;5125;-69
2022/12/23 12:15:35;;;;;;;;;;;;;;;14.62;73.58;96737.56;4220315;27;7715;-70
2022/12/23 12:17:42;;;;;;;;;;;;;;;14.62;73.48;96738.38;4227376;28;5638;-68
2022/12/23 12:19:56;;;;;;;;;;;;;;;14.63;73.66;96739.19;4228600;28;5737;-69
2022/12/23 12:22:04;;;;;;;;;;;;;;;14.64;73.80;96735.50;4236083;28;5713;-69
2022/12/23 12:24:11;;;;;;;;;;;;;;;14.61;73.78;96739.41;4231688;27;5810;-68
2022/12/23 12:26:27;;;;;;;;;;;;;;;14.62;73.89;96742.88;4227346;28;5715;-69
2022/12/23 12:28:37;;;;;;;;;;;;;;;14.65;73.84;96743.25;4225316;28;5862;-69
2022/12/23 12:30:46;;;;;;;;;;;;;;;14.65;73.75;96739.78;4227817;28;5673;-68
2022/12/23 12:32:55;;;;;;;;;;;;;;;14.64;73.73;96735.50;4232910;28;5729;-68
2022/12/23 12:35:02;;;;;;;;;;;;;;;14.63;73.84;96737.34;4218615;28;6361;-69
2022/12/23 12:37:18;;;;;;;;;;;;;;;14.64;73.66;96732.81;4231150;28;5720;-68
2022/12/23 12:39:27;;;;;;;;;;;;;;;14.64;73.97;96738.16;4227192;28;5773;-68
2022/12/23 12:41:37;;;;;;;;;;;;;;;14.63;73.97;96731.19;4219849;28;5683;-68
2022/12/23 12:43:48;;;;;;;;;;;;;;;14.65;73.97;96737.13;4219196;28;5675;-68
2022/12/23 12:45:59;;;;;;;;;;;;;;;14.65;73.81;96739.78;4233787;28;5090;-68
2022/12/23 12:48:22;;;;;;;;;;;;;;;14.65;73.89;96748.56;4226992;28;5675;-68
2022/12/23 12:50:29;;;;;;;;;;;;;;;14.65;73.75;96731.78;4226690;28;5659;-69
2022/12/23 12:52:38;;;;;;;;;;;;;;;14.62;73.91;96740.22;4233956;28;5646;-68
2022/12/23 12:54:49;;;;;;;;;;;;;;;14.62;73.85;96745.53;4234447;28;6421;-68
2022/12/23 12:56:55;;;;;;;;;;;;;;;14.62;74.03;96743.69;4228713;28;5650;-65
2022/12/23 12:58:59;;;;;;;;;;;;;;;14.59;73.99;96743.28;4224266;28;5889;-66
2022/12/23 13:01:13;;;;;;;;;;;;;;;14.57;73.81;96735.53;4233521;27;5650;-66
2022/12/23 13:03:32;;;;;;;;;;;;;;;14.55;74.00;96735.75;4227323;28;5660;-66
2022/12/23 13:05:48;;;;;;;;;;;;;;;14.54;74.04;96731.47;4226720;28;5663;-67
2022/12/23 13:08:07;;;;;;;;;;;;;;;14.55;74.00;96722.47;4228403;28;5894;-74
2022/12/23 13:10:17;;;;;;;;;;;;;;;14.59;74.01;96714.03;4230481;28;5653;-66
2022/12/23 13:12:29;;;;;;;;;;;;;;;14.61;73.81;96720.78;4234573;28;5655;-67
2022/12/23 13:14:55;;;;;;;;;;;;;;;14.64;73.75;96711.53;4233504;28;5673;-66
2022/12/23 13:17:08;;;;;;;;;;;;;;;14.66;73.70;96709.47;4232047;28;5653;-67
2022/12/23 13:19:18;;;;;;;;;;;;;;;14.67;73.73;96697.78;4221967;28;5648;-68
2022/12/23 13:21:27;;;;;;;;;;;;;;;14.70;73.84;96707.97;4217874;27;5743;-67
2022/12/23 13:23:37;;;;;;;;;;;;;;;14.71;73.64;96713.06;4217711;28;5738;-67
2022/12/23 13:25:54;;;;;;;;;;;;;;;14.72;73.48;96711.22;4220286;28;5716;-67
2022/12/23 13:27:59;;;;;;;;;;;;;;;14.71;73.56;96713.06;4219375;27;5770;-68
2022/12/23 13:30:10;;;;;;;;;;;;;;;14.72;73.54;96717.41;4223480;27;5682;-67
2022/12/23 13:32:24;;;;;;;;;;;;;;;14.72;73.74;96716.56;4222478;28;5675;-68
2022/12/23 13:34:35;;;;;;;;;;;;;;;14.72;73.70;96717.41;4230268;28;5794;-67
2022/12/23 13:36:48;;;;;;;;;;;;;;;14.72;73.42;96711.22;4227566;28;5655;-67
2022/12/23 13:39:26;;;;;;;;;;;;;;;14.73;73.58;96713.69;4226047;28;5642;-66
2022/12/23 13:41:34;;;;;;;;;;;;;;;14.75;73.53;96713.47;4218990;28;5856;-65
2022/12/23 13:43:43;;;;;;;;;;;;;;;14.73;73.40;96729.66;4228233;28;5697;-66
2022/12/23 13:45:49;;;;;;;;;;;;;;;14.73;73.24;96723.53;4221398;28;5753;-67
2022/12/23 13:48:05;;;;;;;;;;;;;;;14.71;73.52;96721.06;4232121;28;5853;-66
2022/12/23 13:50:13;;;;;;;;;;;;;;;14.74;73.37;96730.47;4222289;28;5650;-67
2022/12/23 13:52:21;;;;;;;;;;;;;;;14.73;73.43;96732.31;4224119;28;5749;-65
2022/12/23 13:54:36;;;;;;;;;;;;;;;14.75;73.40;96724.13;4222105;28;5750;-66
2022/12/23 13:56:43;;;;;;;;;;;;;;;14.75;73.16;96726.78;4215071;28;5852;-66
2022/12/23 13:58:48;;;;;;;;;;;;;;;14.77;73.22;96724.69;4225355;28;5653;-66
2022/12/23 14:00:58;;;;;;;;;;;;;;;14.78;73.21;96723.66;4225522;28;5647;-65
2022/12/23 14:03:16;;;;;;;;;;;;;;;14.76;73.26;96723.88;4226477;27;5630;-66
2022/12/23 14:05:38;;;;;;;;;;;;;;;14.77;73.05;96709.53;4227436;28;5748;-65
2022/12/23 14:07:44;;;;;;;;;;;;;;;14.78;73.17;96715.69;4215896;28;5802;-67
2022/12/23 14:09:53;;;;;;;;;;;;;;;14.77;73.31;96714.88;4227202;27;5725;-66
2022/12/23 14:11:57;;;;;;;;;;;;;;;14.76;73.52;96712.44;4227998;28;5675;-67
2022/12/23 14:14:17;;;;;;;;;;;;;;;14.76;73.28;96713.25;4216551;28;5638;-67
2022/12/23 14:16:35;;;;;;;;;;;;;;;14.74;73.29;96699.34;4227203;28;5682;-66
2022/12/23 14:18:53;;;;;;;;;;;;;;;14.76;73.14;96707.91;4219251;28;5788;-66
2022/12/23 14:21:07;;;;;;;;;;;;;;;14.78;73.30;96705.03;4229002;28;6082;-67
2022/12/23 14:23:27;;;;;;;;;;;;;;;14.78;73.20;96721.00;4231065;28;5645;-66
2022/12/23 14:25:49;;;;;;;;;;;;;;;14.78;72.98;96723.66;4222739;28;5766;-65
2022/12/23 14:27:59;;;;;;;;;;;;;;;14.77;73.23;96722.03;4232970;28;5849;-66
2022/12/23 14:30:11;;;;;;;;;;;;;;;14.78;73.03;96724.47;4233906;28;6331;-66
2022/12/23 14:32:22;;;;;;;;;;;;;;;14.79;73.04;96730.63;4225838;27;5671;-69
2022/12/23 14:34:29;;;;;;;;;;;;;;;14.78;73.17;96727.13;4221916;28;5385;-67
2022/12/23 14:36:32;;;;;;;;;;;;;;;14.78;73.20;96721.81;4223244;28;7703;-67
2022/12/23 14:38:34;;;;;;;;;;;;;;;14.79;73.08;96722.63;4224546;28;5757;-64
2022/12/23 14:40:51;;;;;;;;;;;;;;;14.79;73.21;96714.66;4228116;28;6346;-66
2022/12/23 14:43:30;;;;;;;;;;;;;;;14.78;72.98;96710.34;4230478;28;6355;-65
2022/12/23 14:45:36;;;;;;;;;;;;;;;14.79;72.99;96704.00;4224885;28;5679;-66
2022/12/23 14:47:40;;;;;;;;;;;;;;;14.79;72.99;96707.47;4224487;28;5659;-67
2022/12/23 14:49:43;;;;;;;;;;;;;;;14.79;73.00;96712.78;4221928;28;5771;-65
2022/12/23 14:51:49;;;;;;;;;;;;;;;14.80;73.01;96716.28;4223074;28;5699;-64
2022/12/23 14:54:13;;;;;;;;;;;;;;;14.81;73.09;96728.53;4229568;28;5698;-65
2022/12/23 14:56:23;;;;;;;;;;;;;;;14.80;73.28;96724.25;4226786;28;5789;-66
2022/12/23 14:58:48;;;;;;;;;;;;;;;14.80;73.28;96721.59;4222592;28;6400;-66
2022/12/23 15:01:00;;;;;;;;;;;;;;;14.81;73.09;96725.88;4224317;28;5638;-66
2022/12/23 15:03:04;;;;;;;;;;;;;;;14.81;73.07;96725.88;4222915;28;5646;-67
2022/12/23 15:05:07;;;;;;;;;;;;;;;14.81;72.97;96721.38;4224359;28;7821;-65
2022/12/23 15:07:16;;;;;;;;;;;;;;;14.81;73.17;96709.91;4225877;28;5650;-66
2022/12/23 15:09:24;;;;;;;;;;;;;;;14.84;73.07;96714.81;4221210;28;5758;-67
2022/12/23 15:11:30;;;;;;;;;;;;;;;14.84;72.98;96714.81;4226344;28;5787;-67
2022/12/23 15:13:33;;;;;;;;;;;;;;;14.84;72.95;96714.81;4226994;28;5913;-69
2022/12/23 15:15:36;;;;;;;;;;;;;;;14.85;73.01;96719.09;4219195;28;5860;-69
2022/12/23 15:17:39;;;;;;;;;;;;;;;14.85;73.13;96724.41;4224026;28;5733;-68
2022/12/23 15:19:47;;;;;;;;;;;;;;;14.87;73.13;96724.19;4220827;28;6499;-68
2022/12/23 15:21:50;;;;;;;;;;;;;;;14.88;73.11;96728.47;4221880;28;5708;-70
2022/12/23 15:24:17;;;;;;;;;;;;;;;14.87;73.22;96730.31;4226705;28;6184;-70
2022/12/23 15:26:24;;;;;;;;;;;;;;;14.88;73.06;96731.94;4232300;28;5748;-70
2022/12/23 15:28:36;;;;;;;;;;;;;;;14.88;72.89;96737.28;4225120;28;5112;-70
2022/12/23 15:30:49;;;;;;;;;;;;;;;14.88;72.98;96739.94;4226733;28;5662;-70
2022/12/23 15:32:57;;;;;;;;;;;;;;;14.89;72.94;96741.56;4220156;28;5675;-70
2022/12/23 15:35:06;;;;;;;;;;;;;;;14.88;73.04;96731.94;4229558;28;5700;-71
2022/12/23 15:37:10;;;;;;;;;;;;;;;14.89;73.02;96733.56;4225706;28;6700;-70
2022/12/23 15:39:19;;;;;;;;;;;;;;;14.90;73.12;96735.19;4231519;28;5642;-70
2022/12/23 15:41:22;;;;;;;;;;;;;;;14.91;73.28;96736.00;4235129;27;5822;-70
2022/12/23 15:43:25;;;;;;;;;;;;;;;14.91;73.13;96730.69;4218201;27;5660;-70
2022/12/23 15:45:34;;;;;;;;;;;;;;;14.91;73.14;96747.47;4233100;28;5737;-70
2022/12/23 15:47:38;;;;;;;;;;;;;;;14.92;73.31;96749.09;4226388;28;5642;-70
2022/12/23 15:49:41;;;;;;;;;;;;;;;14.92;73.18;96743.78;4226365;28;5703;-70
2022/12/23 15:51:50;;;;;;;;;;;;;;;14.91;73.26;96726.19;4226027;28;5750;-70
2022/12/23 15:54:22;;;;;;;;;;;;;;;14.95;73.23;96747.84;4234636;28;5080;-70
2022/12/23 15:56:27;;;;;;;;;;;;;;;14.95;73.19;96737.19;4228174;28;5766;-70
2022/12/23 15:58:33;;;;;;;;;;;;;;;14.95;73.08;96740.69;4226181;28;5687;-70
2022/12/23 16:00:39;;;;;;;;;;;;;;;14.94;73.23;96747.03;4226120;28;5758;-70
2022/12/23 16:02:44;;;;;;;;;;;;;;;14.93;73.20;96734.75;4226441;28;5725;-70
2022/12/23 16:05:06;;;;;;;;;;;;;;;14.95;73.16;96738.03;4220979;28;5860;-70
2022/12/23 16:07:24;;;;;;;;;;;;;;;14.95;73.23;96739.84;4230129;28;5725;-70
2022/12/23 16:09:33;;;;;;;;;;;;;;;14.92;73.24;96759.75;4234415;28;5758;-70
2022/12/23 16:11:51;;;;;;;;;;;;;;;14.91;73.40;96763.44;4225752;27;5679;-70
2022/12/23 16:13:55;;;;;;;;;;;;;;;14.93;73.32;96761.38;4227878;28;5737;-70
2022/12/23 16:16:31;;;;;;;;;;;;;;;14.91;73.25;96747.47;4231146;28;5970;-70
2022/12/23 16:18:42;;;;;;;;;;;;;;;14.88;73.29;96763.09;4225817;28;5787;-70
2022/12/23 16:20:54;;;;;;;;;;;;;;;14.88;73.38;96758.56;4225678;28;6299;-70
2022/12/23 16:23:02;;;;;;;;;;;;;;;14.89;73.32;96746.88;4228397;28;5761;-70
2022/12/23 16:25:15;;;;;;;;;;;;;;;14.87;73.50;96745.50;4234516;28;5662;-70
2022/12/23 16:27:27;;;;;;;;;;;;;;;14.89;73.32;96752.22;4225401;28;5737;-70
2022/12/23 16:29:32;;;;;;;;;;;;;;;14.91;73.54;96746.66;4221318;28;5730;-70
2022/12/23 16:31:37;;;;;;;;;;;;;;;14.90;73.53;96732.53;4233569;28;5741;-70
2022/12/23 16:33:49;;;;;;;;;;;;;;;14.90;73.23;96745.03;4229634;28;5638;-70
2022/12/23 16:35:55;;;;;;;;;;;;;;;14.90;73.55;96740.53;4230831;28;5638;-70
2022/12/23 16:38:11;;;;;;;;;;;;;;;14.92;73.54;96740.28;4230852;28;5687;-69
2022/12/23 16:40:13;;;;;;;;;;;;;;;14.89;73.38;96730.91;4225344;28;5794;-70
2022/12/23 16:42:18;;;;;;;;;;;;;;;14.88;73.49;96731.94;4222083;28;6607;-70
2022/12/23 16:44:21;;;;;;;;;;;;;;;14.89;73.60;96733.56;4225456;28;5749;-70
2022/12/23 16:46:24;;;;;;;;;;;;;;;14.88;73.47;96726.63;4225206;28;5857;-70
2022/12/23 16:48:31;;;;;;;;;;;;;;;14.89;73.43;96728.25;4233688;28;5752;-70
2022/12/23 16:50:34;;;;;;;;;;;;;;;14.91;73.47;96736.81;4224683;27;5705;-70
2022/12/23 16:52:37;;;;;;;;;;;;;;;14.92;73.63;96742.97;4216628;27;5696;-70
2022/12/23 16:54:42;;;;;;;;;;;;;;;14.91;73.35;96758.13;4217189;28;5750;-70
2022/12/23 16:56:46;;;;;;;;;;;;;;;14.90;73.47;96759.16;4224873;27;5810;-70
2022/12/23 16:58:49;;;;;;;;;;;;;;;14.91;73.47;96751.97;4222651;28;5683;-70
2022/12/23 17:00:52;;;;;;;;;;;;;;;14.90;73.30;96748.50;4218398;27;5675;-70
2022/12/23 17:02:55;;;;;;;;;;;;;;;14.91;73.45;96751.97;4225006;27;5826;-69
2022/12/23 17:04:58;;;;;;;;;;;;;;;14.91;73.39;96731.50;4224696;28;5694;-70
2022/12/23 17:07:01;;;;;;;;;;;;;;;14.92;73.57;96734.97;4224639;28;5730;-70
2022/12/23 17:09:06;;;;;;;;;;;;;;;14.91;73.40;96731.50;4222035;28;5668;-70
2022/12/23 17:11:14;;;;;;;;;;;;;;;14.91;73.46;96728.84;4229465;28;5638;-70
2022/12/23 17:13:18;;;;;;;;;;;;;;;14.91;73.52;96742.16;4223362;27;5654;-70
2022/12/23 17:15:23;;;;;;;;;;;;;;;14.91;73.35;96741.34;4225150;27;5728;-71
2022/12/23 17:17:25;;;;;;;;;;;;;;;14.91;73.50;96747.47;4229035;27;5736;-70
2022/12/23 17:19:30;;;;;;;;;;;;;;;14.92;73.60;96762.41;4231138;27;5745;-71
2022/12/23 17:21:37;;;;;;;;;;;;;;;14.91;73.41;96774.09;4225186;28;5663;-71
2022/12/23 17:23:43;;;;;;;;;;;;;;;14.90;73.29;96756.50;4224644;27;5899;-70
2022/12/23 17:25:46;;;;;;;;;;;;;;;14.90;73.29;96751.16;4225415;27;5770;-71
2022/12/23 17:27:51;;;;;;;;;;;;;;;14.88;73.48;96758.56;4226269;27;5679;-71
2022/12/23 17:29:54;;;;;;;;;;;;;;;14.89;73.22;96762.84;4226388;27;5554;-70